sensor_id;sensor_type;location;lat;lon;timestamp;temperature;humidity
62555;DHT22;48610;52.144;8.624;2022-10-03T00:02:32;11.70;99.90
62555;DHT22;48610;52.144;8.624;2022-10-03T00:22:12;11.60;99.90
62555;DHT22;48610;52.144;8.624;2022-10-03T00:28:50;11.60;99.90
62555;DHT22;48610;52.144;8.624;2022-10-03T01:01:37;11.40;99.90
62555;DHT22;48610;52.144;8.624;2022-10-03T01:05:03;11.40;99.90
62555;DHT22;48610;52.144;8.624;2022-10-03T01:08:46;11.30;99.90
62555;DHT22;48610;52.144;8.624;2022-10-03T01:11:55;11.40;99.90
62555;DHT22;48610;52.144;8.624;2022-10-03T01:31:16;10.90;99.90
62555;DHT22;48610;52.144;8.624;2022-10-03T01:34:24;10.80;99.90
62555;DHT22;48610;52.144;8.624;2022-10-03T01:37:28;10.80;99.90
62555;DHT22;48610;52.144;8.624;2022-10-03T01:40:43;10.60;99.90
62555;DHT22;48610;52.144;8.624;2022-10-03T01:43:53;10.50;99.90
62555;DHT22;48610;52.144;8.624;2022-10-03T01:47:24;10.50;99.90
62555;DHT22;48610;52.144;8.624;2022-10-03T01:50:37;10.50;99.90
62555;DHT22;48610;52.144;8.624;2022-10-03T01:57:33;10.40;99.90
62555;DHT22;48610;52.144;8.624;2022-10-03T02:04:19;10.60;99.90
62555;DHT22;48610;52.144;8.624;2022-10-03T02:07:42;10.50;99.90
62555;DHT22;48610;52.144;8.624;2022-10-03T02:10:57;10.60;99.90
62555;DHT22;48610;52.144;8.624;2022-10-03T02:17:49;10.30;99.90
62555;DHT22;48610;52.144;8.624;2022-10-03T02:27:46;10.20;99.90
62555;DHT22;48610;52.144;8.624;2022-10-03T02:51:13;9.90;99.90
62555;DHT22;48610;52.144;8.624;2022-10-03T02:54:34;9.80;99.90
62555;DHT22;48610;52.144;8.624;2022-10-03T02:57:58;9.80;99.90
62555;DHT22;48610;52.144;8.624;2022-10-03T03:21:40;9.80;99.90
62555;DHT22;48610;52.144;8.624;2022-10-03T03:28:17;9.70;99.90
62555;DHT22;48610;52.144;8.624;2022-10-03T03:42:17;9.00;99.90
62555;DHT22;48610;52.144;8.624;2022-10-03T03:45:07;9.00;99.90
62555;DHT22;48610;52.144;8.624;2022-10-03T03:55:21;8.80;99.90
62555;DHT22;48610;52.144;8.624;2022-10-03T03:58:42;8.70;99.90
62555;DHT22;48610;52.144;8.624;2022-10-03T04:08:38;8.80;99.90
62555;DHT22;48610;52.144;8.624;2022-10-03T04:12:07;8.80;99.90
62555;DHT22;48610;52.144;8.624;2022-10-03T04:18:49;8.70;99.90
62555;DHT22;48610;52.144;8.624;2022-10-03T04:32:32;8.70;99.90
62555;DHT22;48610;52.144;8.624;2022-10-03T04:45:53;8.50;99.90
62555;DHT22;48610;52.144;8.624;2022-10-03T04:52:35;8.30;99.90
62555;DHT22;48610;52.144;8.624;2022-10-03T04:55:42;8.30;99.90
62555;DHT22;48610;52.144;8.624;2022-10-03T04:59:00;8.20;99.90
62555;DHT22;48610;52.144;8.624;2022-10-03T05:05:53;8.40;99.90
62555;DHT22;48610;52.144;8.624;2022-10-03T05:09:14;8.40;99.90
62555;DHT22;48610;52.144;8.624;2022-10-03T05:13:04;8.40;99.90
62555;DHT22;48610;52.144;8.624;2022-10-03T05:23:18;8.50;99.90
62555;DHT22;48610;52.144;8.624;2022-10-03T05:30:02;7.90;99.90
62555;DHT22;48610;52.144;8.624;2022-10-03T05:33:25;7.90;99.90
62555;DHT22;48610;52.144;8.624;2022-10-03T05:40:25;8.30;99.90
62555;DHT22;48610;52.144;8.624;2022-10-03T05:43:33;8.40;99.90
62555;DHT22;48610;52.144;8.624;2022-10-03T05:49:53;8.60;99.90
62555;DHT22;48610;52.144;8.624;2022-10-03T06:03:34;9.00;99.90
62555;DHT22;48610;52.144;8.624;2022-10-03T06:06:50;9.00;99.90
62555;DHT22;48610;52.144;8.624;2022-10-03T06:17:23;9.10;99.90
62555;DHT22;48610;52.144;8.624;2022-10-03T06:24:04;9.10;99.90
62555;DHT22;48610;52.144;8.624;2022-10-03T07:15:20;10.10;99.90
62555;DHT22;48610;52.144;8.624;2022-10-03T07:25:40;10.50;99.90
62555;DHT22;48610;52.144;8.624;2022-10-03T08:18:19;12.50;99.90
62555;DHT22;48610;52.144;8.624;2022-10-03T08:35:02;12.90;99.90
62555;DHT22;48610;52.144;8.624;2022-10-03T09:05:03;13.40;99.90
62555;DHT22;48610;52.144;8.624;2022-10-03T09:08:40;13.70;99.90
62555;DHT22;48610;52.144;8.624;2022-10-03T09:45:53;14.20;99.90
62555;DHT22;48610;52.144;8.624;2022-10-03T10:49:33;16.60;99.90
62555;DHT22;48610;52.144;8.624;2022-10-03T11:10:32;15.60;99.90
62555;DHT22;48610;52.144;8.624;2022-10-03T11:37:12;15.80;99.90
62555;DHT22;48610;52.144;8.624;2022-10-03T11:41:00;15.70;99.90
62555;DHT22;48610;52.144;8.624;2022-10-03T11:44:40;15.60;99.90
62555;DHT22;48610;52.144;8.624;2022-10-03T11:50:53;15.70;99.90
62555;DHT22;48610;52.144;8.624;2022-10-03T11:57:29;15.70;99.90
62555;DHT22;48610;52.144;8.624;2022-10-03T12:00:34;15.80;99.90
62555;DHT22;48610;52.144;8.624;2022-10-03T12:03:41;16.00;99.90
62555;DHT22;48610;52.144;8.624;2022-10-03T12:24:19;16.30;99.90
62555;DHT22;48610;52.144;8.624;2022-10-03T12:28:01;16.40;99.90
62555;DHT22;48610;52.144;8.624;2022-10-03T12:31:33;16.50;99.90
62555;DHT22;48610;52.144;8.624;2022-10-03T12:44:52;17.20;99.90
62555;DHT22;48610;52.144;8.624;2022-10-03T12:54:58;17.00;99.90
62555;DHT22;48610;52.144;8.624;2022-10-03T13:09:08;17.10;99.90
62555;DHT22;48610;52.144;8.624;2022-10-03T13:12:30;17.60;99.90
62555;DHT22;48610;52.144;8.624;2022-10-03T13:16:35;17.80;99.90
62555;DHT22;48610;52.144;8.624;2022-10-03T13:19:20;17.40;99.90
62555;DHT22;48610;52.144;8.624;2022-10-03T13:22:44;17.30;99.90
62555;DHT22;48610;52.144;8.624;2022-10-03T13:26:15;17.20;99.90
62555;DHT22;48610;52.144;8.624;2022-10-03T13:29:41;17.20;99.90
62555;DHT22;48610;52.144;8.624;2022-10-03T13:33:00;16.90;99.90
62555;DHT22;48610;52.144;8.624;2022-10-03T13:36:04;16.70;99.90
62555;DHT22;48610;52.144;8.624;2022-10-03T13:39:13;16.70;99.90
62555;DHT22;48610;52.144;8.624;2022-10-03T13:45:31;16.60;99.90
62555;DHT22;48610;52.144;8.624;2022-10-03T13:48:33;16.70;99.90
62555;DHT22;48610;52.144;8.624;2022-10-03T13:55:47;16.60;99.90
62555;DHT22;48610;52.144;8.624;2022-10-03T13:59:16;16.60;99.90
62555;DHT22;48610;52.144;8.624;2022-10-03T14:15:49;16.70;99.90
62555;DHT22;48610;52.144;8.624;2022-10-03T14:22:40;16.70;99.90
62555;DHT22;48610;52.144;8.624;2022-10-03T14:26:01;16.70;99.90
62555;DHT22;48610;52.144;8.624;2022-10-03T14:29:16;16.70;99.90
62555;DHT22;48610;52.144;8.624;2022-10-03T14:36:37;16.60;99.90
62555;DHT22;48610;52.144;8.624;2022-10-03T14:45:49;16.70;99.90
62555;DHT22;48610;52.144;8.624;2022-10-03T14:48:56;16.60;99.90
62555;DHT22;48610;52.144;8.624;2022-10-03T14:52:02;16.60;99.90
62555;DHT22;48610;52.144;8.624;2022-10-03T14:55:18;16.70;99.90
62555;DHT22;48610;52.144;8.624;2022-10-03T14:58:29;16.60;99.90
62555;DHT22;48610;52.144;8.624;2022-10-03T15:01:33;16.60;99.90
62555;DHT22;48610;52.144;8.624;2022-10-03T15:04:39;16.70;99.90
62555;DHT22;48610;52.144;8.624;2022-10-03T15:07:43;16.70;99.90
62555;DHT22;48610;52.144;8.624;2022-10-03T15:10:45;16.60;99.90
62555;DHT22;48610;52.144;8.624;2022-10-03T15:13:50;16.60;99.90
62555;DHT22;48610;52.144;8.624;2022-10-03T15:16:55;16.30;99.90
62555;DHT22;48610;52.144;8.624;2022-10-03T15:19:59;16.20;99.90
62555;DHT22;48610;52.144;8.624;2022-10-03T15:23:02;16.30;99.90
62555;DHT22;48610;52.144;8.624;2022-10-03T15:26:12;16.20;99.90
62555;DHT22;48610;52.144;8.624;2022-10-03T15:29:16;16.20;99.90
62555;DHT22;48610;52.144;8.624;2022-10-03T15:32:28;16.10;99.90
62555;DHT22;48610;52.144;8.624;2022-10-03T15:35:32;16.10;99.90
62555;DHT22;48610;52.144;8.624;2022-10-03T15:38:40;16.00;99.90
62555;DHT22;48610;52.144;8.624;2022-10-03T15:41:53;16.00;99.90
62555;DHT22;48610;52.144;8.624;2022-10-03T15:45:16;16.00;99.90
62555;DHT22;48610;52.144;8.624;2022-10-03T15:48:19;16.00;99.90
62555;DHT22;48610;52.144;8.624;2022-10-03T15:51:24;16.00;99.90
62555;DHT22;48610;52.144;8.624;2022-10-03T15:54:28;16.00;99.90
62555;DHT22;48610;52.144;8.624;2022-10-03T15:57:32;16.00;99.90
62555;DHT22;48610;52.144;8.624;2022-10-03T16:00:35;15.90;99.90
62555;DHT22;48610;52.144;8.624;2022-10-03T16:03:58;15.80;99.90
62555;DHT22;48610;52.144;8.624;2022-10-03T16:07:11;15.80;99.90
62555;DHT22;48610;52.144;8.624;2022-10-03T16:10:19;15.80;99.90
62555;DHT22;48610;52.144;8.624;2022-10-03T16:13:41;15.80;99.90
62555;DHT22;48610;52.144;8.624;2022-10-03T16:16:49;15.70;99.90
62555;DHT22;48610;52.144;8.624;2022-10-03T16:19:59;15.80;99.90
62555;DHT22;48610;52.144;8.624;2022-10-03T16:26:27;15.60;99.90
62555;DHT22;48610;52.144;8.624;2022-10-03T16:29:33;15.50;99.90
62555;DHT22;48610;52.144;8.624;2022-10-03T16:32:47;15.50;99.90
62555;DHT22;48610;52.144;8.624;2022-10-03T16:35:59;15.30;99.90
62555;DHT22;48610;52.144;8.624;2022-10-03T16:39:02;15.20;99.90
62555;DHT22;48610;52.144;8.624;2022-10-03T16:42:14;15.20;99.90
62555;DHT22;48610;52.144;8.624;2022-10-03T16:48:27;15.30;99.90
62555;DHT22;48610;52.144;8.624;2022-10-03T16:52:17;15.10;99.90
62555;DHT22;48610;52.144;8.624;2022-10-03T16:55:45;15.10;99.90
62555;DHT22;48610;52.144;8.624;2022-10-03T16:58:52;14.90;99.90
62555;DHT22;48610;52.144;8.624;2022-10-03T17:01:57;14.80;99.90
62555;DHT22;48610;52.144;8.624;2022-10-03T17:05:05;14.80;99.90
62555;DHT22;48610;52.144;8.624;2022-10-03T17:08:09;14.70;99.90
62555;DHT22;48610;52.144;8.624;2022-10-03T17:11:15;14.70;99.90
62555;DHT22;48610;52.144;8.624;2022-10-03T17:14:19;14.50;99.90
62555;DHT22;48610;52.144;8.624;2022-10-03T17:17:27;14.40;99.90
62555;DHT22;48610;52.144;8.624;2022-10-03T17:21:32;14.40;99.90
62555;DHT22;48610;52.144;8.624;2022-10-03T17:24:10;14.50;99.90
62555;DHT22;48610;52.144;8.624;2022-10-03T17:27:23;14.40;99.90
62555;DHT22;48610;52.144;8.624;2022-10-03T17:33:42;14.40;99.90
62555;DHT22;48610;52.144;8.624;2022-10-03T17:37:46;14.30;99.90
62555;DHT22;48610;52.144;8.624;2022-10-03T17:40:49;14.30;99.90
62555;DHT22;48610;52.144;8.624;2022-10-03T17:47:55;14.10;99.90
62555;DHT22;48610;52.144;8.624;2022-10-03T17:51:29;14.10;99.90
62555;DHT22;48610;52.144;8.624;2022-10-03T17:54:33;14.10;99.90
62555;DHT22;48610;52.144;8.624;2022-10-03T17:57:52;14.10;99.90
62555;DHT22;48610;52.144;8.624;2022-10-03T18:04:01;14.20;99.90
62555;DHT22;48610;52.144;8.624;2022-10-03T18:07:12;14.10;99.90
62555;DHT22;48610;52.144;8.624;2022-10-03T18:10:26;14.00;99.90
62555;DHT22;48610;52.144;8.624;2022-10-03T18:13:42;13.60;99.90
62555;DHT22;48610;52.144;8.624;2022-10-03T18:16:51;13.40;99.90
62555;DHT22;48610;52.144;8.624;2022-10-03T18:20:33;13.10;99.90
62555;DHT22;48610;52.144;8.624;2022-10-03T18:27:03;13.00;99.90
62555;DHT22;48610;52.144;8.624;2022-10-03T18:33:56;12.80;99.90
62555;DHT22;48610;52.144;8.624;2022-10-03T18:37:14;12.60;99.90
62555;DHT22;48610;52.144;8.624;2022-10-03T18:40:25;12.50;99.90
62555;DHT22;48610;52.144;8.624;2022-10-03T18:43:36;12.50;99.90
62555;DHT22;48610;52.144;8.624;2022-10-03T18:46:45;12.50;99.90
62555;DHT22;48610;52.144;8.624;2022-10-03T18:50:20;12.40;99.90
62555;DHT22;48610;52.144;8.624;2022-10-03T18:53:37;12.40;99.90
62555;DHT22;48610;52.144;8.624;2022-10-03T18:56:41;12.30;99.90
62555;DHT22;48610;52.144;8.624;2022-10-03T19:12:26;12.00;99.90
62555;DHT22;48610;52.144;8.624;2022-10-03T19:22:11;11.80;99.90
62555;DHT22;48610;52.144;8.624;2022-10-03T19:25:19;11.70;99.90
62555;DHT22;48610;52.144;8.624;2022-10-03T19:28:29;11.50;99.90
62555;DHT22;48610;52.144;8.624;2022-10-03T19:31:37;11.50;99.90
62555;DHT22;48610;52.144;8.624;2022-10-03T19:34:42;11.40;99.90
62555;DHT22;48610;52.144;8.624;2022-10-03T19:37:51;11.30;99.90
62555;DHT22;48610;52.144;8.624;2022-10-03T19:40:58;11.30;99.90
62555;DHT22;48610;52.144;8.624;2022-10-03T19:44:14;11.20;99.90
62555;DHT22;48610;52.144;8.624;2022-10-03T19:47:32;11.20;99.90
62555;DHT22;48610;52.144;8.624;2022-10-03T19:50:36;11.30;99.90
62555;DHT22;48610;52.144;8.624;2022-10-03T19:53:41;11.30;99.90
62555;DHT22;48610;52.144;8.624;2022-10-03T19:56:42;11.20;99.90
62555;DHT22;48610;52.144;8.624;2022-10-03T19:59:52;11.20;99.90
62555;DHT22;48610;52.144;8.624;2022-10-03T20:03:05;11.30;99.90
62555;DHT22;48610;52.144;8.624;2022-10-03T20:09:21;11.10;99.90
62555;DHT22;48610;52.144;8.624;2022-10-03T20:12:26;11.10;99.90
62555;DHT22;48610;52.144;8.624;2022-10-03T20:15:39;11.00;99.90
62555;DHT22;48610;52.144;8.624;2022-10-03T20:18:44;11.00;99.90
62555;DHT22;48610;52.144;8.624;2022-10-03T20:21:56;11.00;99.90
62555;DHT22;48610;52.144;8.624;2022-10-03T20:24:59;11.00;99.90
62555;DHT22;48610;52.144;8.624;2022-10-03T20:28:03;10.80;99.90
62555;DHT22;48610;52.144;8.624;2022-10-03T20:31:05;10.80;99.90
62555;DHT22;48610;52.144;8.624;2022-10-03T20:34:13;10.80;99.90
62555;DHT22;48610;52.144;8.624;2022-10-03T20:40:41;10.80;99.90
62555;DHT22;48610;52.144;8.624;2022-10-03T20:43:55;10.70;99.90
62555;DHT22;48610;52.144;8.624;2022-10-03T20:50:40;10.60;99.90
62555;DHT22;48610;52.144;8.624;2022-10-03T20:53:42;10.60;99.90
62555;DHT22;48610;52.144;8.624;2022-10-03T21:00:05;10.40;99.90
62555;DHT22;48610;52.144;8.624;2022-10-03T21:10:30;10.10;99.90
62555;DHT22;48610;52.144;8.624;2022-10-03T21:13:47;10.10;99.90
62555;DHT22;48610;52.144;8.624;2022-10-03T21:16:51;10.10;99.90
62555;DHT22;48610;52.144;8.624;2022-10-03T21:20:04;10.20;99.90
62555;DHT22;48610;52.144;8.624;2022-10-03T21:23:15;10.20;99.90
62555;DHT22;48610;52.144;8.624;2022-10-03T21:26:22;10.20;99.90
62555;DHT22;48610;52.144;8.624;2022-10-03T21:35:53;10.20;99.90
62555;DHT22;48610;52.144;8.624;2022-10-03T21:39:01;10.10;99.90
62555;DHT22;48610;52.144;8.624;2022-10-03T21:42:21;10.00;99.90
62555;DHT22;48610;52.144;8.624;2022-10-03T21:45:49;9.90;99.90
62555;DHT22;48610;52.144;8.624;2022-10-03T21:56:01;10.00;99.90
62555;DHT22;48610;52.144;8.624;2022-10-03T22:06:19;9.90;99.90
62555;DHT22;48610;52.144;8.624;2022-10-03T22:09:21;9.80;99.90
62555;DHT22;48610;52.144;8.624;2022-10-03T22:12:22;9.70;99.90
62555;DHT22;48610;52.144;8.624;2022-10-03T22:15:47;9.70;99.90
62555;DHT22;48610;52.144;8.624;2022-10-03T22:19:19;9.60;99.90
62555;DHT22;48610;52.144;8.624;2022-10-03T22:38:49;9.60;99.90
62555;DHT22;48610;52.144;8.624;2022-10-03T22:41:55;9.70;99.90
62555;DHT22;48610;52.144;8.624;2022-10-03T22:44:57;9.70;99.90
62555;DHT22;48610;52.144;8.624;2022-10-03T22:48:01;9.60;99.90
62555;DHT22;48610;52.144;8.624;2022-10-03T22:51:08;9.40;99.90
62555;DHT22;48610;52.144;8.624;2022-10-03T22:54:14;9.40;99.90
62555;DHT22;48610;52.144;8.624;2022-10-03T22:57:15;9.30;99.90
62555;DHT22;48610;52.144;8.624;2022-10-03T23:00:24;9.40;99.90
62555;DHT22;48610;52.144;8.624;2022-10-03T23:03:29;9.30;99.90
62555;DHT22;48610;52.144;8.624;2022-10-03T23:36:31;9.20;99.90
62555;DHT22;48610;52.144;8.624;2022-10-03T23:39:34;9.20;99.90
62555;DHT22;48610;52.144;8.624;2022-10-03T23:42:42;9.20;99.90
62555;DHT22;48610;52.144;8.624;2022-10-03T23:45:44;9.40;99.90
62555;DHT22;48610;52.144;8.624;2022-10-03T23:48:48;9.20;99.90
62555;DHT22;48610;52.144;8.624;2022-10-03T23:51:51;9.10;99.90
62555;DHT22;48610;52.144;8.624;2022-10-03T23:54:54;9.10;99.90
62555;DHT22;48610;52.144;8.624;2022-10-03T23:57:57;9.10;99.90
